Time;durP1;ratioP1;P1;durP2;ratioP2;P2;SDS_P1;SDS_P2;PMS_P1;PMS_P2;Temp;Humidity;BMP_temperature;BMP_pressure;BME280_temperature;BME280_humidity;BME280_pressure;Samples;Min_cycle;Max_cycle;Signal;HPM_P1;HPM_P2
2022/01/21 00:01:08;;;;;;;7.90;3.20;;;2.30;99.90;;;;;;5093825;28;20473;-52
2022/01/21 00:03:35;;;;;;;5.60;3.23;;;2.20;99.90;;;;;;5093600;28;20449;-52
2022/01/21 00:06:06;;;;;;;4.97;3.37;;;2.20;99.90;;;;;;5093617;28;20490;-54
2022/01/21 00:08:34;;;;;;;4.60;3.33;;;2.20;99.90;;;;;;5093502;28;20927;-52
2022/01/21 00:11:01;;;;;;;6.03;3.50;;;2.20;99.90;;;;;;5092959;28;20470;-52
2022/01/21 00:13:34;;;;;;;5.53;3.70;;;2.30;99.90;;;;;;5093569;28;20574;-52
2022/01/21 00:16:04;;;;;;;3.83;3.30;;;2.10;99.90;;;;;;5093374;28;20902;-52
2022/01/21 00:18:32;;;;;;;4.20;3.20;;;2.00;99.90;;;;;;5093380;28;20568;-52
2022/01/21 00:32:13;;;;;;;4.70;3.53;;;2.00;99.90;;;;;;5092999;28;20534;-51
2022/01/21 00:34:40;;;;;;;9.70;5.43;;;1.90;99.90;;;;;;5093046;28;20926;-52
2022/01/21 00:37:07;;;;;;;6.33;3.30;;;2.00;99.90;;;;;;5093175;28;20444;-51
2022/01/21 00:39:35;;;;;;;6.60;2.83;;;1.90;99.90;;;;;;5093139;28;20551;-51
2022/01/21 00:42:10;;;;;;;6.03;3.40;;;2.00;99.90;;;;;;5092847;28;20518;-52
2022/01/21 00:44:37;;;;;;;5.50;3.33;;;2.10;99.90;;;;;;5093114;28;20445;-51
2022/01/21 00:47:05;;;;;;;6.43;2.90;;;2.20;99.90;;;;;;5092572;28;20780;-52
2022/01/21 00:49:34;;;;;;;3.77;3.10;;;2.10;99.90;;;;;;5092924;28;20443;-51
2022/01/21 00:52:01;;;;;;;4.73;3.13;;;2.20;99.90;;;;;;5092564;28;20471;-52
2022/01/21 00:54:28;;;;;;;5.47;3.33;;;2.10;99.90;;;;;;5092870;28;20444;-50
2022/01/21 00:56:56;;;;;;;6.17;3.03;;;2.30;99.90;;;;;;5092585;28;20442;-50
2022/01/21 00:59:23;;;;;;;4.37;2.47;;;2.40;99.90;;;;;;5092810;28;20793;-50
2022/01/21 01:01:54;;;;;;;7.67;4.13;;;2.30;99.90;;;;;;5092417;28;20554;-50
2022/01/21 01:04:22;;;;;;;4.73;3.33;;;2.10;99.90;;;;;;5092840;28;20493;-50
2022/01/21 01:06:50;;;;;;;9.37;3.40;;;2.20;99.90;;;;;;5092551;28;20479;-50
2022/01/21 01:09:17;;;;;;;6.33;3.13;;;2.20;99.90;;;;;;5092648;28;20463;-50
2022/01/21 01:11:53;;;;;;;9.10;3.93;;;2.20;99.90;;;;;;5092368;28;20475;-51
2022/01/21 01:19:57;;;;;;;3.17;2.87;;;2.30;99.90;;;;;;5092566;28;20407;-50
2022/01/21 01:22:35;;;;;;;3.60;2.90;;;2.30;99.90;;;;;;5092781;28;20524;-50
2022/01/21 01:27:48;;;;;;;13.60;3.50;;;2.30;99.90;;;;;;5096480;28;21020;-50
2022/01/21 01:30:18;;;;;;;5.13;2.80;;;2.20;99.90;;;;;;5096509;28;20853;-50
2022/01/21 01:32:46;;;;;;;6.17;2.93;;;2.30;99.90;;;;;;5096505;28;20450;-50
2022/01/21 01:35:16;;;;;;;5.07;3.53;;;2.30;99.90;;;;;;5096520;28;20538;-51
2022/01/21 01:38:09;;;;;;;4.00;3.13;;;2.20;99.90;;;;;;5096441;28;20449;-50
2022/01/21 01:40:41;;;;;;;8.37;3.80;;;2.30;99.90;;;;;;5096094;28;20487;-50
2022/01/21 01:51:29;;;;;;;8.00;3.03;;;2.20;99.90;;;;;;5096045;28;20446;-51
2022/01/21 01:54:01;;;;;;;8.03;3.77;;;2.20;99.90;;;;;;5095754;28;20451;-50
2022/01/21 01:56:30;;;;;;;6.07;2.73;;;2.20;99.90;;;;;;5096206;28;20416;-51
2022/01/21 01:58:58;;;;;;;5.60;3.20;;;2.30;99.90;;;;;;5095823;28;20482;-51
2022/01/21 02:01:25;;;;;;;8.43;4.43;;;2.10;99.90;;;;;;5095555;28;20481;-50
2022/01/21 02:03:52;;;;;;;5.80;3.60;;;2.20;99.90;;;;;;5095539;28;20454;-51
2022/01/21 02:06:20;;;;;;;5.83;3.10;;;2.10;99.90;;;;;;5095958;28;20471;-51
2022/01/21 02:08:48;;;;;;;9.17;3.30;;;2.20;99.90;;;;;;5095376;28;20443;-51
2022/01/21 02:11:17;;;;;;;8.17;4.50;;;2.30;99.90;;;;;;5095381;28;20463;-50
2022/01/21 02:13:47;;;;;;;7.33;3.73;;;2.20;99.90;;;;;;5095784;28;20477;-50
2022/01/21 02:16:31;;;;;;;3.93;3.43;;;2.20;99.90;;;;;;5095823;28;20507;-51
2022/01/21 02:21:47;;;;;;;8.00;3.80;;;2.60;99.90;;;;;;5095568;28;20443;-51
2022/01/21 02:24:18;;;;;;;5.10;3.87;;;2.40;99.90;;;;;;5095559;28;20424;-50
2022/01/21 02:26:46;;;;;;;3.63;2.70;;;2.20;99.90;;;;;;5095157;28;20467;-50
2022/01/21 02:29:17;;;;;;;6.23;4.00;;;2.10;99.90;;;;;;5095236;28;20549;-50
2022/01/21 02:31:44;;;;;;;6.77;3.23;;;2.30;99.90;;;;;;5095050;28;20474;-51
2022/01/21 02:34:11;;;;;;;7.53;5.40;;;2.20;99.90;;;;;;5094614;28;20849;-51
2022/01/21 02:36:38;;;;;;;6.47;3.87;;;2.20;99.90;;;;;;5095374;28;20450;-50
2022/01/21 02:39:07;;;;;;;4.60;3.10;;;2.20;99.90;;;;;;5095269;28;20572;-50
2022/01/21 02:41:34;;;;;;;8.00;2.93;;;2.00;99.90;;;;;;5094692;28;20838;-50
2022/01/21 02:44:01;;;;;;;3.73;3.23;;;2.00;99.90;;;;;;5095081;28;20452;-50
2022/01/21 02:46:29;;;;;;;4.50;3.40;;;2.10;99.90;;;;;;5094993;28;20479;-51
2022/01/21 02:48:56;;;;;;;9.17;3.57;;;2.00;99.90;;;;;;5094985;28;20782;-51
2022/01/21 02:51:23;;;;;;;5.30;3.00;;;2.00;99.90;;;;;;5095009;28;20471;-51
2022/01/21 02:54:05;;;;;;;3.80;3.37;;;2.00;99.90;;;;;;5094892;28;20428;-50
2022/01/21 02:56:37;;;;;;;6.13;3.20;;;2.00;99.90;;;;;;5094813;28;20435;-51
2022/01/21 02:59:06;;;;;;;5.93;3.30;;;2.20;99.90;;;;;;5094847;28;20467;-51
2022/01/21 03:01:35;;;;;;;7.63;3.00;;;2.30;99.90;;;;;;5094336;28;20472;-51
2022/01/21 03:04:03;;;;;;;6.40;3.10;;;2.20;99.90;;;;;;5094541;28;20453;-50
2022/01/21 03:06:31;;;;;;;5.03;3.50;;;2.30;99.90;;;;;;5094488;28;20479;-51
2022/01/21 03:09:00;;;;;;;3.10;2.80;;;2.40;99.90;;;;;;5094271;28;20461;-51
2022/01/21 03:11:28;;;;;;;5.70;2.70;;;2.40;99.90;;;;;;5094384;28;20474;-51
2022/01/21 03:13:57;;;;;;;5.07;3.03;;;2.30;99.90;;;;;;5094622;28;20451;-50
2022/01/21 03:16:24;;;;;;;3.57;2.90;;;2.30;99.90;;;;;;5094119;28;20647;-51
2022/01/21 03:18:52;;;;;;;7.17;3.50;;;2.10;99.90;;;;;;5094036;28;20972;-50
2022/01/21 03:21:19;;;;;;;6.93;3.30;;;2.10;99.90;;;;;;5094039;28;21013;-50
2022/01/21 03:23:48;;;;;;;6.67;4.10;;;2.00;99.90;;;;;;5094323;28;20448;-50
2022/01/21 03:26:17;;;;;;;3.97;3.57;;;2.00;99.90;;;;;;5093935;28;20478;-50
2022/01/21 03:28:45;;;;;;;9.63;3.07;;;2.10;99.90;;;;;;5094336;28;20443;-51
2022/01/21 03:31:15;;;;;;;6.43;3.73;;;2.10;99.90;;;;;;5093831;28;20459;-50
2022/01/21 03:33:42;;;;;;;11.73;3.87;;;2.10;99.90;;;;;;5093853;28;20483;-50
2022/01/21 03:36:10;;;;;;;10.37;4.40;;;2.10;99.90;;;;;;5093914;28;20451;-50
2022/01/21 03:38:37;;;;;;;5.90;2.87;;;1.90;99.90;;;;;;5093627;28;20497;-50
2022/01/21 03:41:05;;;;;;;11.13;4.30;;;2.00;99.90;;;;;;5093450;28;20993;-50
2022/01/21 03:43:32;;;;;;;11.73;5.20;;;1.90;99.90;;;;;;5093754;28;20530;-50
2022/01/21 03:46:00;;;;;;;6.50;3.40;;;1.90;99.90;;;;;;5093167;28;20549;-50
2022/01/21 03:48:28;;;;;;;9.20;4.67;;;1.90;99.90;;;;;;5093737;28;20451;-50
2022/01/21 03:50:56;;;;;;;8.87;4.03;;;1.80;99.90;;;;;;5093540;28;21076;-50
2022/01/21 03:53:23;;;;;;;8.23;3.17;;;1.70;99.90;;;;;;5093891;28;20546;-50
2022/01/21 03:55:51;;;;;;;15.27;3.53;;;1.80;99.90;;;;;;5093689;28;20481;-50
2022/01/21 03:58:18;;;;;;;7.17;4.03;;;1.80;99.90;;;;;;5093608;28;20447;-50
2022/01/21 04:00:47;;;;;;;5.27;3.63;;;1.80;99.90;;;;;;5093686;28;20473;-50
2022/01/21 04:03:14;;;;;;;5.07;3.43;;;1.90;99.90;;;;;;5093328;28;20950;-51
2022/01/21 04:05:43;;;;;;;7.93;3.70;;;1.90;99.90;;;;;;5093064;28;20942;-51
2022/01/21 04:08:12;;;;;;;3.50;3.20;;;1.90;99.90;;;;;;5093668;28;20466;-51
2022/01/21 04:10:42;;;;;;;8.30;3.33;;;1.90;99.90;;;;;;5092991;28;20471;-50
2022/01/21 04:13:15;;;;;;;4.00;3.60;;;1.80;99.90;;;;;;5093129;28;20891;-51
2022/01/21 04:15:45;;;;;;;3.50;2.93;;;1.90;99.90;;;;;;5093106;28;20890;-50
2022/01/21 04:18:14;;;;;;;4.00;3.53;;;1.80;99.90;;;;;;5093360;28;20447;-50
2022/01/21 04:20:43;;;;;;;6.63;3.90;;;1.80;99.90;;;;;;5092943;28;20934;-50
2022/01/21 04:23:11;;;;;;;8.63;3.00;;;1.90;99.90;;;;;;5093032;28;20447;-50
2022/01/21 04:25:38;;;;;;;4.07;3.23;;;1.90;99.90;;;;;;5093397;28;20452;-51
2022/01/21 04:28:06;;;;;;;10.17;3.53;;;1.80;99.90;;;;;;5093148;28;20478;-50
2022/01/21 04:30:34;;;;;;;5.03;3.80;;;1.80;99.90;;;;;;5093124;28;20451;-50
2022/01/21 04:33:01;;;;;;;4.83;3.70;;;1.80;99.90;;;;;;5093301;28;20457;-50
2022/01/21 04:35:29;;;;;;;14.40;4.20;;;1.80;99.90;;;;;;5092821;28;20453;-51
2022/01/21 04:38:01;;;;;;;11.00;4.30;;;1.70;99.90;;;;;;5092789;28;20443;-50
2022/01/21 04:40:32;;;;;;;7.17;4.03;;;1.60;99.90;;;;;;5092205;28;20837;-51
2022/01/21 04:48:30;;;;;;;7.27;4.13;;;1.80;99.90;;;;;;5092917;28;20415;-51
2022/01/21 04:51:03;;;;;;;9.97;4.07;;;1.80;99.90;;;;;;5092932;28;20459;-50
2022/01/21 04:53:32;;;;;;;11.47;3.83;;;1.80;99.90;;;;;;5092604;28;20510;-51
2022/01/21 04:56:00;;;;;;;4.40;3.57;;;1.80;99.90;;;;;;5092673;28;20809;-50
2022/01/21 04:58:27;;;;;;;7.60;5.00;;;1.80;99.90;;;;;;5096386;28;20446;-51
2022/01/21 05:00:54;;;;;;;6.43;4.00;;;1.80;99.90;;;;;;5096711;28;20977;-50
2022/01/21 05:03:21;;;;;;;7.90;3.97;;;1.60;99.90;;;;;;5097049;28;20443;-50
2022/01/21 05:05:48;;;;;;;6.63;4.90;;;1.60;99.90;;;;;;5096820;28;20534;-50
2022/01/21 05:08:25;;;;;;;15.10;4.03;;;1.70;99.90;;;;;;5096445;28;20486;-51
2022/01/21 05:10:53;;;;;;;8.23;4.37;;;1.80;99.90;;;;;;5096947;28;20486;-51
2022/01/21 05:13:25;;;;;;;11.70;4.47;;;1.80;99.90;;;;;;5096718;28;20443;-50
2022/01/21 05:16:03;;;;;;;6.90;3.70;;;1.80;99.90;;;;;;5096559;28;20443;-51
2022/01/21 05:18:30;;;;;;;8.50;4.30;;;1.80;99.90;;;;;;5096414;28;20796;-50
2022/01/21 05:20:58;;;;;;;5.87;4.33;;;1.80;99.90;;;;;;5096631;28;20489;-50
2022/01/21 05:23:26;;;;;;;7.57;4.00;;;1.80;99.90;;;;;;5096527;28;20961;-51
2022/01/21 05:25:54;;;;;;;5.30;3.47;;;1.80;99.90;;;;;;5096609;28;20469;-50
2022/01/21 05:28:22;;;;;;;11.53;5.43;;;1.80;99.90;;;;;;5096514;28;20566;-51
2022/01/21 05:30:49;;;;;;;7.30;3.60;;;1.90;99.90;;;;;;5096547;28;20820;-51
2022/01/21 05:33:16;;;;;;;6.33;3.73;;;1.90;99.90;;;;;;5096349;28;20824;-50
2022/01/21 05:35:43;;;;;;;8.20;4.43;;;1.80;99.90;;;;;;5096013;28;20461;-50
2022/01/21 05:38:10;;;;;;;6.87;4.00;;;1.80;99.90;;;;;;5096485;28;20439;-50
2022/01/21 05:40:38;;;;;;;4.10;3.40;;;1.80;99.90;;;;;;5095843;28;20980;-54
2022/01/21 05:43:06;;;;;;;9.67;4.57;;;1.80;99.90;;;;;;5096263;28;20827;-51
2022/01/21 05:48:18;;;;;;;12.03;5.13;;;1.90;99.90;;;;;;5095848;28;20828;-50
2022/01/21 05:50:45;;;;;;;5.83;3.60;;;2.00;99.90;;;;;;5096195;28;20473;-50
2022/01/21 05:53:13;;;;;;;9.53;4.20;;;2.10;99.90;;;;;;5095704;28;20542;-51
2022/01/21 05:55:42;;;;;;;5.50;4.37;;;2.10;99.90;;;;;;5096058;28;20505;-50
2022/01/21 05:58:13;;;;;;;7.80;3.77;;;2.00;99.90;;;;;;5096127;28;20439;-50
2022/01/21 06:00:44;;;;;;;9.53;4.50;;;1.90;99.90;;;;;;5095560;28;20459;-50
2022/01/21 06:03:12;;;;;;;6.30;3.93;;;2.10;99.90;;;;;;5096148;28;20451;-50
2022/01/21 06:05:40;;;;;;;6.63;4.87;;;2.10;99.90;;;;;;5096078;28;20447;-51
2022/01/21 06:08:07;;;;;;;5.07;4.00;;;2.00;99.90;;;;;;5095811;28;20479;-51
2022/01/21 06:10:34;;;;;;;7.00;4.47;;;2.00;99.90;;;;;;5095370;28;20459;-51
2022/01/21 06:13:01;;;;;;;6.13;4.70;;;2.00;99.90;;;;;;5095721;28;20535;-51
2022/01/21 06:15:30;;;;;;;7.27;4.00;;;2.00;99.90;;;;;;5095560;28;20479;-51
2022/01/21 06:17:57;;;;;;;4.80;3.90;;;2.10;99.90;;;;;;5095277;28;20496;-51
2022/01/21 06:20:24;;;;;;;12.97;4.83;;;2.20;99.90;;;;;;5095544;28;20447;-53
2022/01/21 06:22:52;;;;;;;5.40;3.50;;;2.20;99.90;;;;;;5095301;28;20918;-51
2022/01/21 06:25:19;;;;;;;12.90;4.63;;;2.30;99.90;;;;;;5095132;28;20432;-50
2022/01/21 06:27:46;;;;;;;8.97;4.27;;;2.30;99.90;;;;;;5094957;28;20561;-51
2022/01/21 06:30:14;;;;;;;5.63;5.03;;;2.40;99.90;;;;;;5095415;28;20550;-51
2022/01/21 06:32:43;;;;;;;8.33;5.10;;;2.40;99.90;;;;;;5094878;28;20501;-51
2022/01/21 06:35:11;;;;;;;10.83;5.13;;;2.30;99.90;;;;;;5095222;28;20451;-50
2022/01/21 06:37:38;;;;;;;6.60;5.03;;;2.30;99.90;;;;;;5094945;28;20444;-51
2022/01/21 06:40:07;;;;;;;13.73;4.97;;;2.30;99.90;;;;;;5094845;28;20554;-51
2022/01/21 06:42:34;;;;;;;10.33;4.83;;;2.40;99.90;;;;;;5094675;28;20883;-53
2022/01/21 06:45:02;;;;;;;10.70;4.43;;;2.30;99.90;;;;;;5094793;28;20451;-51
2022/01/21 06:47:29;;;;;;;11.20;4.63;;;2.20;99.90;;;;;;5094760;28;20483;-51
2022/01/21 06:49:59;;;;;;;10.90;4.87;;;2.10;99.90;;;;;;5094791;28;20443;-51
2022/01/21 06:52:27;;;;;;;7.50;4.40;;;1.80;99.90;;;;;;5094502;28;20464;-51
2022/01/21 06:54:54;;;;;;;6.60;3.90;;;1.80;99.90;;;;;;5094557;28;20457;-53
2022/01/21 06:57:21;;;;;;;14.60;7.07;;;1.90;99.90;;;;;;5094456;28;20557;-51
2022/01/21 06:59:49;;;;;;;9.77;4.53;;;1.80;99.90;;;;;;5094630;28;20451;-53
2022/01/21 07:02:18;;;;;;;16.27;5.57;;;1.90;99.90;;;;;;5094407;28;21033;-51
2022/01/21 07:04:46;;;;;;;7.33;5.03;;;2.00;99.90;;;;;;5094532;28;20443;-51
2022/01/21 07:07:14;;;;;;;6.80;4.33;;;1.90;99.90;;;;;;5094354;28;20894;-51
2022/01/21 07:09:42;;;;;;;6.43;4.80;;;1.80;99.90;;;;;;5094597;28;20427;-51
2022/01/21 07:12:10;;;;;;;8.23;5.10;;;1.80;99.90;;;;;;5094245;28;20503;-51
2022/01/21 07:14:37;;;;;;;6.13;4.83;;;1.80;99.90;;;;;;5094239;28;20534;-51
2022/01/21 07:17:05;;;;;;;10.10;4.30;;;1.70;99.90;;;;;;5094091;28;20946;-50
2022/01/21 07:19:32;;;;;;;12.77;5.10;;;1.70;99.90;;;;;;5094018;28;20942;-50
2022/01/21 07:22:00;;;;;;;6.37;4.77;;;1.70;99.90;;;;;;5092733;28;20574;-50
2022/01/21 07:24:28;;;;;;;7.93;5.00;;;1.70;99.90;;;;;;5093926;28;20940;-51
2022/01/21 07:26:56;;;;;;;7.27;5.10;;;1.80;99.90;;;;;;5094114;28;20450;-51
2022/01/21 07:29:24;;;;;;;6.70;4.70;;;2.00;99.90;;;;;;5094079;28;20469;-51
2022/01/21 07:31:54;;;;;;;9.03;5.57;;;2.00;99.90;;;;;;5093724;28;20550;-51
2022/01/21 07:34:21;;;;;;;10.90;5.40;;;2.30;99.90;;;;;;5093563;28;20934;-50
2022/01/21 07:36:49;;;;;;;6.83;4.50;;;2.30;99.90;;;;;;5093677;28;20534;-50
2022/01/21 07:39:16;;;;;;;9.43;4.37;;;2.10;99.90;;;;;;5093631;28;20473;-50
2022/01/21 07:41:45;;;;;;;11.20;4.90;;;2.10;99.90;;;;;;5093477;28;20479;-51
2022/01/21 07:44:13;;;;;;;6.30;3.93;;;2.20;99.90;;;;;;5093389;28;20930;-51
2022/01/21 07:46:41;;;;;;;10.40;5.17;;;2.10;99.90;;;;;;5093480;28;20512;-50
2022/01/21 07:49:08;;;;;;;13.67;4.80;;;2.10;99.90;;;;;;5093876;28;20479;-50
2022/01/21 07:51:36;;;;;;;6.13;4.23;;;2.00;99.90;;;;;;5093616;28;20471;-50
2022/01/21 07:54:04;;;;;;;5.60;4.83;;;1.90;99.90;;;;;;5093058;28;20450;-50
2022/01/21 07:56:34;;;;;;;13.90;4.50;;;2.00;99.90;;;;;;5093609;28;20469;-50
2022/01/21 07:59:06;;;;;;;14.90;5.37;;;1.90;99.90;;;;;;5093817;28;20447;-50
2022/01/21 08:01:33;;;;;;;11.80;5.70;;;2.10;99.90;;;;;;5093182;28;20471;-50
2022/01/21 08:04:01;;;;;;;6.47;4.80;;;2.10;99.90;;;;;;5092943;28;20454;-51
2022/01/21 08:06:28;;;;;;;14.77;5.30;;;2.00;99.90;;;;;;5093262;28;20601;-51
2022/01/21 08:08:55;;;;;;;9.63;5.90;;;2.10;99.90;;;;;;5093213;28;20490;-51
2022/01/21 08:11:23;;;;;;;10.10;5.77;;;2.20;99.90;;;;;;5093211;28;20551;-50
2022/01/21 08:13:50;;;;;;;7.03;5.77;;;2.10;99.90;;;;;;5092904;28;20902;-50
2022/01/21 08:16:19;;;;;;;6.10;5.40;;;2.00;99.90;;;;;;5092876;28;20489;-51
2022/01/21 08:18:46;;;;;;;9.30;5.00;;;2.20;99.90;;;;;;5092711;28;20471;-51
2022/01/21 08:21:18;;;;;;;12.00;5.10;;;2.40;99.90;;;;;;5092982;28;20824;-51
2022/01/21 08:23:45;;;;;;;5.60;4.80;;;2.50;99.90;;;;;;5092769;28;20432;-51
2022/01/21 08:26:13;;;;;;;5.90;5.10;;;2.30;99.90;;;;;;5092787;28;20451;-50
2022/01/21 08:28:40;;;;;;;10.13;5.00;;;2.40;99.90;;;;;;5092796;28;20835;-50
2022/01/21 08:31:07;;;;;;;10.60;4.70;;;2.40;99.90;;;;;;5092727;28;20949;-51
2022/01/21 08:33:36;;;;;;;5.27;4.50;;;2.60;99.90;;;;;;5092023;28;21045;-51
2022/01/21 08:36:04;;;;;;;15.00;5.00;;;2.60;99.90;;;;;;5092551;28;20454;-51
2022/01/21 08:38:31;;;;;;;10.53;5.53;;;2.70;99.90;;;;;;5093005;28;20452;-51
2022/01/21 08:40:58;;;;;;;10.50;6.60;;;2.50;99.90;;;;;;5092448;28;20570;-51
2022/01/21 08:43:29;;;;;;;16.87;5.37;;;2.40;99.90;;;;;;5091520;28;20539;-51
2022/01/21 08:45:56;;;;;;;5.93;4.60;;;2.50;99.90;;;;;;5093061;28;20512;-50
2022/01/21 08:48:23;;;;;;;7.23;5.20;;;2.40;99.90;;;;;;5092209;28;20989;-51
2022/01/21 08:50:52;;;;;;;11.10;5.90;;;2.50;99.90;;;;;;5092605;28;20522;-51
2022/01/21 08:56:00;;;;;;;10.33;5.80;;;2.80;99.90;;;;;;5090716;28;20459;-51
2022/01/21 08:58:27;;;;;;;7.33;5.30;;;3.00;99.90;;;;;;5092345;28;20530;-51
2022/01/21 09:00:55;;;;;;;11.13;6.60;;;3.20;99.90;;;;;;5092531;28;20474;-51
2022/01/21 09:03:22;;;;;;;10.00;6.53;;;3.00;99.90;;;;;;5093080;28;20435;-50
2022/01/21 09:05:51;;;;;;;9.70;7.23;;;2.80;99.90;;;;;;5092245;28;20463;-51
2022/01/21 09:08:19;;;;;;;12.20;7.50;;;3.00;99.90;;;;;;5092105;28;20584;-51
2022/01/21 09:10:46;;;;;;;12.83;6.80;;;3.10;99.90;;;;;;5092700;28;20471;-51
2022/01/21 09:13:13;;;;;;;8.23;7.20;;;3.00;99.90;;;;;;5092061;28;20538;-51
2022/01/21 09:15:41;;;;;;;7.23;5.10;;;3.00;99.90;;;;;;5092245;28;20483;-50
2022/01/21 09:18:09;;;;;;;16.67;9.63;;;2.90;99.90;;;;;;5092533;28;20440;-51
2022/01/21 09:20:37;;;;;;;9.70;6.73;;;2.80;99.90;;;;;;5092479;28;20451;-51
2022/01/21 09:23:06;;;;;;;19.00;8.70;;;2.70;99.90;;;;;;5092438;28;20538;-51
2022/01/21 09:25:34;;;;;;;6.70;5.40;;;2.70;99.90;;;;;;5092105;28;20447;-53
2022/01/21 09:28:01;;;;;;;8.90;5.30;;;2.80;99.90;;;;;;5092499;28;20553;-52
2022/01/21 09:30:28;;;;;;;15.07;5.83;;;2.70;99.90;;;;;;5092002;28;20451;-51
2022/01/21 09:32:56;;;;;;;8.97;6.30;;;2.70;99.90;;;;;;5092044;28;20515;-51
2022/01/21 09:35:24;;;;;;;7.03;5.67;;;2.70;99.90;;;;;;5092416;28;20462;-51
2022/01/21 09:37:52;;;;;;;12.90;6.93;;;2.60;99.90;;;;;;5092305;28;20527;-51
2022/01/21 09:40:23;;;;;;;11.03;6.00;;;2.80;99.90;;;;;;5091955;28;20483;-52
2022/01/21 09:42:51;;;;;;;12.80;6.57;;;2.90;99.90;;;;;;5091993;28;20875;-51
2022/01/21 09:45:22;;;;;;;10.50;6.03;;;3.00;99.90;;;;;;5094886;28;20443;-52
2022/01/21 09:47:51;;;;;;;11.70;5.23;;;3.10;99.90;;;;;;5095511;28;20973;-52
2022/01/21 09:50:20;;;;;;;11.20;5.87;;;3.40;99.90;;;;;;5095954;28;20447;-52
2022/01/21 09:52:48;;;;;;;15.33;6.60;;;3.40;99.90;;;;;;5095628;28;20946;-51
2022/01/21 09:55:17;;;;;;;11.17;5.67;;;3.60;99.90;;;;;;5095895;28;20861;-51
2022/01/21 09:57:47;;;;;;;9.13;5.10;;;3.80;99.90;;;;;;5095885;28;20451;-51
2022/01/21 10:00:17;;;;;;;11.00;5.63;;;3.90;99.90;;;;;;5095881;28;20810;-53
2022/01/21 10:02:45;;;;;;;12.43;5.80;;;4.00;99.90;;;;;;5095719;28;20888;-51
2022/01/21 10:05:13;;;;;;;7.13;4.83;;;4.20;99.90;;;;;;5095635;28;20512;-51
2022/01/21 10:07:42;;;;;;;7.73;5.90;;;4.30;99.90;;;;;;5095253;28;20479;-51
2022/01/21 10:10:10;;;;;;;7.93;5.20;;;3.80;99.90;;;;;;5095587;28;20496;-51
2022/01/21 10:12:39;;;;;;;11.63;5.97;;;3.40;99.90;;;;;;5095089;28;20550;-51
2022/01/21 10:15:09;;;;;;;8.00;5.27;;;3.50;99.90;;;;;;5095031;28;20450;-51
2022/01/21 10:17:37;;;;;;;6.03;5.30;;;3.70;99.90;;;;;;5095625;28;20511;-50
2022/01/21 10:20:16;;;;;;;12.00;6.20;;;3.50;99.90;;;;;;5095531;28;20475;-50
2022/01/21 10:22:58;;;;;;;7.90;4.90;;;3.70;99.90;;;;;;5095135;28;20447;-50
2022/01/21 10:25:26;;;;;;;10.90;5.37;;;3.90;99.90;;;;;;5095027;28;20448;-50
2022/01/21 10:27:54;;;;;;;10.73;5.80;;;4.00;99.90;;;;;;5094661;28;20444;-50
2022/01/21 10:30:25;;;;;;;7.87;4.93;;;3.60;99.90;;;;;;5095066;28;20477;-51
2022/01/21 10:32:52;;;;;;;6.10;4.90;;;4.00;99.90;;;;;;5094901;28;20445;-51
2022/01/21 10:35:22;;;;;;;6.73;6.00;;;3.70;99.90;;;;;;5094985;28;20448;-51
2022/01/21 10:37:49;;;;;;;8.67;5.87;;;3.60;99.90;;;;;;5095254;28;20449;-51
2022/01/21 10:40:21;;;;;;;6.67;4.80;;;3.50;99.90;;;;;;5093781;28;20487;-51
2022/01/21 10:42:48;;;;;;;8.73;4.97;;;3.30;99.90;;;;;;5094764;28;21029;-51
2022/01/21 10:45:16;;;;;;;4.97;4.30;;;3.40;99.90;;;;;;5095051;28;20530;-50
2022/01/21 10:47:51;;;;;;;7.33;4.83;;;3.10;99.90;;;;;;5094499;28;20452;-51
2022/01/21 10:50:21;;;;;;;8.33;5.13;;;3.40;99.90;;;;;;5094963;28;20452;-51
2022/01/21 10:52:51;;;;;;;7.00;6.30;;;3.40;99.90;;;;;;5094309;28;20451;-51
2022/01/21 10:55:30;;;;;;;9.43;5.47;;;3.40;99.90;;;;;;5094701;28;20435;-51
2022/01/21 10:58:08;;;;;;;11.13;5.30;;;3.60;99.90;;;;;;5094621;28;20948;-51
2022/01/21 11:00:35;;;;;;;5.00;4.33;;;3.80;99.90;;;;;;5094725;28;20554;-51
2022/01/21 11:03:12;;;;;;;15.23;5.70;;;4.20;99.90;;;;;;5094199;28;20452;-51
2022/01/21 11:05:43;;;;;;;8.73;5.87;;;4.40;99.90;;;;;;5094601;28;20428;-51
2022/01/21 11:08:11;;;;;;;7.07;4.50;;;4.70;99.90;;;;;;5094632;28;20479;-51
2022/01/21 11:10:45;;;;;;;8.43;5.23;;;4.80;99.90;;;;;;5094770;28;21057;-51
2022/01/21 11:13:32;;;;;;;17.37;4.80;;;5.00;99.90;;;;;;5094399;28;20432;-51
2022/01/21 11:16:05;;;;;;;9.87;4.50;;;5.00;99.90;;;;;;5094012;28;20948;-51
2022/01/21 11:18:34;;;;;;;8.60;4.30;;;5.00;99.90;;;;;;5093985;28;20938;-51
2022/01/21 11:21:09;;;;;;;6.60;4.43;;;4.80;99.90;;;;;;5093853;28;20953;-51
2022/01/21 11:23:37;;;;;;;11.00;4.53;;;4.30;99.90;;;;;;5094343;28;20455;-51
2022/01/21 11:26:09;;;;;;;16.93;4.73;;;4.00;99.90;;;;;;5094018;28;20443;-51
2022/01/21 11:28:42;;;;;;;6.83;4.20;;;3.90;99.90;;;;;;5094172;28;20467;-51
2022/01/21 11:31:10;;;;;;;5.60;4.40;;;4.00;99.90;;;;;;5093693;28;20467;-51
2022/01/21 11:33:38;;;;;;;7.73;4.20;;;4.30;99.90;;;;;;5093714;28;20444;-51
2022/01/21 11:36:07;;;;;;;6.30;3.67;;;4.30;99.90;;;;;;5093538;28;20451;-51
2022/01/21 11:38:37;;;;;;;5.20;4.37;;;4.20;99.90;;;;;;5093829;28;20447;-51
2022/01/21 11:41:05;;;;;;;5.20;4.67;;;4.30;99.90;;;;;;5093689;28;20514;-51
2022/01/21 11:43:39;;;;;;;9.77;5.13;;;4.50;99.90;;;;;;5093693;28;20458;-51
2022/01/21 11:46:25;;;;;;;4.70;4.30;;;4.20;99.90;;;;;;5093303;28;20490;-51
2022/01/21 11:48:56;;;;;;;9.03;3.60;;;3.90;99.90;;;;;;5093583;28;20554;-51
2022/01/21 11:51:26;;;;;;;9.77;4.47;;;4.20;99.90;;;;;;5093258;28;20962;-51
2022/01/21 11:53:56;;;;;;;10.13;4.00;;;3.70;99.90;;;;;;5093613;28;20424;-51
2022/01/21 11:56:42;;;;;;;6.40;3.83;;;3.60;99.90;;;;;;5093261;28;20451;-51
2022/01/21 11:59:12;;;;;;;7.77;4.53;;;3.90;99.90;;;;;;5093439;28;20428;-53
2022/01/21 12:01:47;;;;;;;9.30;4.70;;;4.10;99.90;;;;;;5093284;28;20463;-52
2022/01/21 12:04:16;;;;;;;11.33;4.30;;;4.20;99.90;;;;;;5093306;28;20826;-49
2022/01/21 12:06:43;;;;;;;6.33;3.77;;;4.50;99.90;;;;;;5093124;28;20450;-48
2022/01/21 12:09:13;;;;;;;8.20;3.53;;;4.70;99.90;;;;;;5093284;28;20570;-48
2022/01/21 12:11:40;;;;;;;7.50;3.90;;;4.90;99.90;;;;;;5092911;28;20838;-48
2022/01/21 12:14:45;;;;;;;8.60;3.83;;;4.70;99.90;;;;;;5092679;28;20448;-49
2022/01/21 12:17:45;;;;;;;5.37;3.27;;;4.80;99.90;;;;;;5080226;28;20449;-46
2022/01/21 12:20:12;;;;;;;3.93;3.60;;;4.70;99.90;;;;;;5072217;28;20429;-48
2022/01/21 12:22:40;;;;;;;7.37;3.20;;;4.80;99.90;;;;;;5072374;28;20504;-49
2022/01/21 12:25:09;;;;;;;4.93;3.87;;;4.70;99.90;;;;;;5072397;28;20810;-50
2022/01/21 12:27:37;;;;;;;4.43;2.90;;;4.80;99.90;;;;;;5072230;28;20455;-55
2022/01/21 12:30:28;;;;;;;5.43;3.23;;;4.40;99.90;;;;;;5075302;28;20559;-52
2022/01/21 12:33:01;;;;;;;6.53;2.80;;;4.50;99.90;;;;;;5070271;28;20527;-57
2022/01/21 12:35:29;;;;;;;15.63;3.20;;;4.30;99.90;;;;;;5071748;28;20444;-53
2022/01/21 12:41:30;;;;;;;6.47;3.60;;;4.60;99.90;;;;;;5071828;28;20482;-58
2022/01/21 12:43:58;;;;;;;4.80;3.00;;;4.80;99.90;;;;;;5038940;28;20449;-51
2022/01/21 12:46:31;;;;;;;16.87;3.53;;;5.20;99.90;;;;;;5077406;28;20447;-51
2022/01/21 12:49:02;;;;;;;8.80;3.10;;;5.10;99.90;;;;;;5076613;28;20566;-56
2022/01/21 12:51:56;;;;;;;4.97;3.43;;;5.10;99.90;;;;;;5073764;28;20515;-49
2022/01/21 12:57:11;;;;;;;11.37;3.40;;;5.20;99.90;;;;;;5082036;28;20435;-50
2022/01/21 12:59:39;;;;;;;6.10;3.40;;;5.20;99.90;;;;;;5078702;28;20484;-57
2022/01/21 13:02:08;;;;;;;12.93;4.30;;;5.30;99.90;;;;;;5082208;28;20981;-50
2022/01/21 13:04:49;;;;;;;7.33;3.20;;;5.00;99.90;;;;;;5081348;28;20444;-57
2022/01/21 13:07:26;;;;;;;4.37;3.30;;;4.70;99.90;;;;;;5075736;28;20424;-51
2022/01/21 13:10:07;;;;;;;6.37;3.30;;;5.00;99.90;;;;;;5079555;28;20483;-53
2022/01/21 13:13:00;;;;;;;5.17;3.33;;;5.20;99.90;;;;;;5076726;28;21066;-56
2022/01/21 13:15:39;;;;;;;10.97;3.93;;;4.70;99.90;;;;;;5077366;28;20800;-58
2022/01/21 13:18:08;;;;;;;9.03;3.60;;;4.50;99.90;;;;;;5074205;28;20447;-50
2022/01/21 13:20:40;;;;;;;9.03;4.73;;;4.60;99.90;;;;;;5091859;28;20455;-57
2022/01/21 13:23:07;;;;;;;6.10;4.23;;;4.70;99.90;;;;;;5090426;28;20443;-54
2022/01/21 13:25:35;;;;;;;5.95;3.28;;;4.40;99.90;;;;;;5092501;28;20437;-57
2022/01/21 13:28:05;;;;;;;6.30;2.70;;;4.60;99.90;;;;;;5082579;28;20683;-55
2022/01/21 13:30:34;;;;;;;5.20;3.07;;;4.60;99.90;;;;;;5083180;28;20475;-57
2022/01/21 13:33:04;;;;;;;5.07;2.63;;;4.70;99.90;;;;;;5083616;28;20456;-55
2022/01/21 13:35:32;;;;;;;9.40;3.50;;;4.90;99.90;;;;;;5096315;28;20444;-51
2022/01/21 13:38:07;;;;;;;5.33;2.90;;;5.10;99.90;;;;;;5081735;28;20455;-54
2022/01/21 13:40:37;;;;;;;4.67;3.37;;;5.30;99.90;;;;;;5080825;28;20558;-56
2022/01/21 13:43:14;;;;;;;11.50;5.20;;;5.20;99.90;;;;;;5083350;28;20460;-60
2022/01/21 13:45:42;;;;;;;9.50;2.80;;;5.40;99.90;;;;;;5090015;28;20494;-57
2022/01/21 13:48:11;;;;;;;6.03;2.50;;;4.90;99.90;;;;;;5083221;28;20479;-54
2022/01/21 13:50:45;;;;;;;3.57;3.27;;;4.60;99.90;;;;;;5090331;28;20483;-51
2022/01/21 13:53:16;;;;;;;5.97;2.80;;;5.00;99.90;;;;;;5081042;28;20440;-56
2022/01/21 13:55:46;;;;;;;7.30;3.10;;;5.10;99.90;;;;;;5085509;28;20493;-60